Terminal Aerodrome Forecast
Issued by NWS

Current Version | Previous Version | Text Only | Print | Product List | Glossary On
Versions: 1 2 3 4 5 6 7 8 9 10 11 12 13 14 15
000
FTUS44 KEPZ 020541
TAFLRU
TAF
KLRU 020541Z 0206/0306 17005KT P6SM FEW250
     FM022000 24006KT P6SM VCTS FEW100CB SCT130 BKN250
     FM030200 11007KT P6SM SCT090 SCT130 BKN250=

USA.gov is the U.S. government's official web portal to all federal, state and local government web resources and services.